sensor_id;sensor_type;location;lat;lon;timestamp;P1;durP1;ratioP1;P2;durP2;ratioP2
19754;SDS011;10036;47.812;9.274;2023-04-08T00:02:21;4.05;;;3.65;;
19754;SDS011;10036;47.812;9.274;2023-04-08T00:04:48;4.05;;;3.75;;
19754;SDS011;10036;47.812;9.274;2023-04-08T00:07:15;4.15;;;3.55;;
19754;SDS011;10036;47.812;9.274;2023-04-08T00:09:42;4.68;;;4.10;;
19754;SDS011;10036;47.812;9.274;2023-04-08T00:12:09;5.00;;;3.67;;
19754;SDS011;10036;47.812;9.274;2023-04-08T00:14:36;4.93;;;3.50;;
19754;SDS011;10036;47.812;9.274;2023-04-08T00:17:04;4.05;;;3.75;;
19754;SDS011;10036;47.812;9.274;2023-04-08T00:19:33;4.93;;;4.15;;
19754;SDS011;10036;47.812;9.274;2023-04-08T00:22:00;4.57;;;4.00;;
19754;SDS011;10036;47.812;9.274;2023-04-08T00:24:27;4.45;;;4.05;;
19754;SDS011;10036;47.812;9.274;2023-04-08T00:26:54;5.15;;;4.30;;
19754;SDS011;10036;47.812;9.274;2023-04-08T00:29:21;3.75;;;3.45;;
19754;SDS011;10036;47.812;9.274;2023-04-08T00:31:48;4.53;;;3.97;;
19754;SDS011;10036;47.812;9.274;2023-04-08T00:34:15;5.25;;;3.88;;
19754;SDS011;10036;47.812;9.274;2023-04-08T00:36:43;5.07;;;4.32;;
19754;SDS011;10036;47.812;9.274;2023-04-08T00:39:11;5.50;;;4.35;;
19754;SDS011;10036;47.812;9.274;2023-04-08T00:41:38;4.30;;;3.90;;
19754;SDS011;10036;47.812;9.274;2023-04-08T00:44:05;4.80;;;4.03;;
19754;SDS011;10036;47.812;9.274;2023-04-08T00:46:33;5.13;;;4.47;;
19754;SDS011;10036;47.812;9.274;2023-04-08T00:49:01;5.65;;;4.80;;
19754;SDS011;10036;47.812;9.274;2023-04-08T00:51:28;4.35;;;3.95;;
19754;SDS011;10036;47.812;9.274;2023-04-08T00:53:57;5.57;;;4.00;;
19754;SDS011;10036;47.812;9.274;2023-04-08T00:56:25;6.10;;;3.83;;
19754;SDS011;10036;47.812;9.274;2023-04-08T00:58:52;4.85;;;4.35;;
19754;SDS011;10036;47.812;9.274;2023-04-08T01:01:21;4.95;;;4.05;;
19754;SDS011;10036;47.812;9.274;2023-04-08T01:03:57;5.50;;;4.65;;
19754;SDS011;10036;47.812;9.274;2023-04-08T01:06:34;4.88;;;4.38;;
19754;SDS011;10036;47.812;9.274;2023-04-08T01:09:08;5.15;;;3.78;;
19754;SDS011;10036;47.812;9.274;2023-04-08T01:11:37;4.93;;;3.90;;
19754;SDS011;10036;47.812;9.274;2023-04-08T01:14:07;4.60;;;4.20;;
19754;SDS011;10036;47.812;9.274;2023-04-08T01:16:36;4.85;;;4.38;;
19754;SDS011;10036;47.812;9.274;2023-04-08T01:19:07;4.75;;;4.25;;
19754;SDS011;10036;47.812;9.274;2023-04-08T01:21:36;4.35;;;3.78;;
19754;SDS011;10036;47.812;9.274;2023-04-08T01:24:05;4.28;;;3.75;;
19754;SDS011;10036;47.812;9.274;2023-04-08T01:26:37;4.40;;;3.97;;
19754;SDS011;10036;47.812;9.274;2023-04-08T01:29:06;5.82;;;4.32;;
19754;SDS011;10036;47.812;9.274;2023-04-08T01:31:33;4.20;;;3.80;;
19754;SDS011;10036;47.812;9.274;2023-04-08T01:34:02;5.82;;;4.43;;
19754;SDS011;10036;47.812;9.274;2023-04-08T01:36:30;4.03;;;3.67;;
19754;SDS011;10036;47.812;9.274;2023-04-08T01:38:59;5.15;;;4.00;;
19754;SDS011;10036;47.812;9.274;2023-04-08T01:41:29;6.28;;;4.05;;
19754;SDS011;10036;47.812;9.274;2023-04-08T01:44:00;4.63;;;4.10;;
19754;SDS011;10036;47.812;9.274;2023-04-08T01:46:28;4.95;;;4.28;;
19754;SDS011;10036;47.812;9.274;2023-04-08T01:48:55;5.65;;;4.68;;
19754;SDS011;10036;47.812;9.274;2023-04-08T01:51:24;4.65;;;4.25;;
19754;SDS011;10036;47.812;9.274;2023-04-08T01:53:51;4.53;;;4.10;;
19754;SDS011;10036;47.812;9.274;2023-04-08T01:56:19;4.70;;;3.95;;
19754;SDS011;10036;47.812;9.274;2023-04-08T01:58:50;4.40;;;4.00;;
19754;SDS011;10036;47.812;9.274;2023-04-08T02:01:21;5.30;;;3.95;;
19754;SDS011;10036;47.812;9.274;2023-04-08T02:03:50;5.47;;;4.35;;
19754;SDS011;10036;47.812;9.274;2023-04-08T02:06:21;5.70;;;4.72;;
19754;SDS011;10036;47.812;9.274;2023-04-08T02:08:48;5.20;;;4.40;;
19754;SDS011;10036;47.812;9.274;2023-04-08T02:11:15;6.38;;;4.43;;
19754;SDS011;10036;47.812;9.274;2023-04-08T02:13:42;4.45;;;4.05;;
19754;SDS011;10036;47.812;9.274;2023-04-08T02:16:11;5.57;;;4.90;;
19754;SDS011;10036;47.812;9.274;2023-04-08T02:18:45;5.13;;;4.38;;
19754;SDS011;10036;47.812;9.274;2023-04-08T02:21:19;4.22;;;3.92;;
19754;SDS011;10036;47.812;9.274;2023-04-08T02:23:52;5.03;;;4.53;;
19754;SDS011;10036;47.812;9.274;2023-04-08T02:26:20;6.45;;;4.35;;
19754;SDS011;10036;47.812;9.274;2023-04-08T02:28:49;4.97;;;4.47;;
19754;SDS011;10036;47.812;9.274;2023-04-08T02:31:19;5.05;;;4.65;;
19754;SDS011;10036;47.812;9.274;2023-04-08T02:33:48;5.45;;;4.53;;
19754;SDS011;10036;47.812;9.274;2023-04-08T02:36:16;5.53;;;4.57;;
19754;SDS011;10036;47.812;9.274;2023-04-08T02:38:46;5.60;;;4.57;;
19754;SDS011;10036;47.812;9.274;2023-04-08T02:41:13;4.78;;;4.28;;
19754;SDS011;10036;47.812;9.274;2023-04-08T02:43:41;4.88;;;4.30;;
19754;SDS011;10036;47.812;9.274;2023-04-08T02:46:08;6.28;;;4.82;;
19754;SDS011;10036;47.812;9.274;2023-04-08T02:48:36;4.95;;;4.30;;
19754;SDS011;10036;47.812;9.274;2023-04-08T02:51:05;4.93;;;4.03;;
19754;SDS011;10036;47.812;9.274;2023-04-08T02:53:32;6.50;;;4.63;;
19754;SDS011;10036;47.812;9.274;2023-04-08T02:55:59;5.85;;;4.70;;
19754;SDS011;10036;47.812;9.274;2023-04-08T02:58:26;6.32;;;4.43;;
19754;SDS011;10036;47.812;9.274;2023-04-08T03:00:53;4.80;;;4.30;;
19754;SDS011;10036;47.812;9.274;2023-04-08T03:03:20;8.05;;;5.13;;
19754;SDS011;10036;47.812;9.274;2023-04-08T03:05:52;5.22;;;4.68;;
19754;SDS011;10036;47.812;9.274;2023-04-08T03:08:21;7.63;;;5.18;;
19754;SDS011;10036;47.812;9.274;2023-04-08T03:10:47;5.38;;;4.55;;
19754;SDS011;10036;47.812;9.274;2023-04-08T03:13:14;7.20;;;4.85;;
19754;SDS011;10036;47.812;9.274;2023-04-08T03:15:41;4.88;;;4.20;;
19754;SDS011;10036;47.812;9.274;2023-04-08T03:18:08;6.57;;;5.00;;
19754;SDS011;10036;47.812;9.274;2023-04-08T03:20:35;6.18;;;5.35;;
19754;SDS011;10036;47.812;9.274;2023-04-08T03:23:02;6.10;;;4.78;;
19754;SDS011;10036;47.812;9.274;2023-04-08T03:25:30;6.65;;;5.63;;
19754;SDS011;10036;47.812;9.274;2023-04-08T03:27:57;7.32;;;5.65;;
19754;SDS011;10036;47.812;9.274;2023-04-08T03:30:24;8.88;;;5.43;;
19754;SDS011;10036;47.812;9.274;2023-04-08T03:32:51;7.47;;;5.78;;
19754;SDS011;10036;47.812;9.274;2023-04-08T03:35:18;8.10;;;5.45;;
19754;SDS011;10036;47.812;9.274;2023-04-08T03:37:45;7.32;;;4.90;;
19754;SDS011;10036;47.812;9.274;2023-04-08T03:40:12;6.10;;;5.30;;
19754;SDS011;10036;47.812;9.274;2023-04-08T03:42:40;5.57;;;5.05;;
19754;SDS011;10036;47.812;9.274;2023-04-08T03:47:54;5.75;;;5.10;;
19754;SDS011;10036;47.812;9.274;2023-04-08T03:50:21;6.70;;;5.00;;
19754;SDS011;10036;47.812;9.274;2023-04-08T03:52:48;5.10;;;4.60;;
19754;SDS011;10036;47.812;9.274;2023-04-08T03:55:15;6.40;;;5.60;;
19754;SDS011;10036;47.812;9.274;2023-04-08T03:57:43;6.22;;;5.43;;
19754;SDS011;10036;47.812;9.274;2023-04-08T04:00:11;5.88;;;5.28;;
19754;SDS011;10036;47.812;9.274;2023-04-08T04:02:38;6.30;;;5.70;;
19754;SDS011;10036;47.812;9.274;2023-04-08T04:05:06;7.93;;;5.78;;
19754;SDS011;10036;47.812;9.274;2023-04-08T04:07:34;7.80;;;5.85;;
19754;SDS011;10036;47.812;9.274;2023-04-08T04:10:00;7.43;;;6.10;;
19754;SDS011;10036;47.812;9.274;2023-04-08T04:12:27;6.00;;;5.40;;
19754;SDS011;10036;47.812;9.274;2023-04-08T04:14:56;6.00;;;5.40;;
19754;SDS011;10036;47.812;9.274;2023-04-08T04:17:22;6.85;;;6.18;;
19754;SDS011;10036;47.812;9.274;2023-04-08T04:19:49;6.40;;;5.80;;
19754;SDS011;10036;47.812;9.274;2023-04-08T04:22:16;8.02;;;7.22;;
19754;SDS011;10036;47.812;9.274;2023-04-08T04:24:45;7.63;;;5.97;;
19754;SDS011;10036;47.812;9.274;2023-04-08T04:27:13;7.32;;;5.57;;
19754;SDS011;10036;47.812;9.274;2023-04-08T04:29:41;6.20;;;5.50;;
19754;SDS011;10036;47.812;9.274;2023-04-08T04:32:10;7.63;;;5.93;;
19754;SDS011;10036;47.812;9.274;2023-04-08T04:34:37;7.88;;;5.78;;
19754;SDS011;10036;47.812;9.274;2023-04-08T04:37:03;9.38;;;5.93;;
19754;SDS011;10036;47.812;9.274;2023-04-08T04:39:33;6.80;;;6.07;;
19754;SDS011;10036;47.812;9.274;2023-04-08T04:42:00;6.80;;;6.00;;
19754;SDS011;10036;47.812;9.274;2023-04-08T04:44:27;6.57;;;5.82;;
19754;SDS011;10036;47.812;9.274;2023-04-08T04:46:54;7.55;;;6.07;;
19754;SDS011;10036;47.812;9.274;2023-04-08T04:49:22;8.85;;;6.63;;
19754;SDS011;10036;47.812;9.274;2023-04-08T04:51:50;9.00;;;6.55;;
19754;SDS011;10036;47.812;9.274;2023-04-08T04:54:16;7.28;;;6.45;;
19754;SDS011;10036;47.812;9.274;2023-04-08T04:56:43;7.97;;;6.35;;
19754;SDS011;10036;47.812;9.274;2023-04-08T04:59:10;7.90;;;6.40;;
19754;SDS011;10036;47.812;9.274;2023-04-08T05:01:37;7.90;;;5.60;;
19754;SDS011;10036;47.812;9.274;2023-04-08T05:04:05;7.65;;;6.75;;
19754;SDS011;10036;47.812;9.274;2023-04-08T05:06:33;6.78;;;5.70;;
19754;SDS011;10036;47.812;9.274;2023-04-08T05:09:00;5.57;;;5.07;;
19754;SDS011;10036;47.812;9.274;2023-04-08T05:11:27;6.57;;;5.93;;
19754;SDS011;10036;47.812;9.274;2023-04-08T05:13:54;7.40;;;6.30;;
19754;SDS011;10036;47.812;9.274;2023-04-08T05:16:21;6.97;;;5.93;;
19754;SDS011;10036;47.812;9.274;2023-04-08T05:18:47;6.97;;;6.00;;
19754;SDS011;10036;47.812;9.274;2023-04-08T05:21:15;6.40;;;5.65;;
19754;SDS011;10036;47.812;9.274;2023-04-08T05:23:43;7.90;;;6.20;;
19754;SDS011;10036;47.812;9.274;2023-04-08T05:26:10;7.18;;;5.95;;
19754;SDS011;10036;47.812;9.274;2023-04-08T05:28:37;6.60;;;5.90;;
19754;SDS011;10036;47.812;9.274;2023-04-08T05:31:04;6.55;;;5.95;;
19754;SDS011;10036;47.812;9.274;2023-04-08T05:33:30;7.40;;;5.60;;
19754;SDS011;10036;47.812;9.274;2023-04-08T05:35:57;6.40;;;5.80;;
19754;SDS011;10036;47.812;9.274;2023-04-08T05:38:24;6.53;;;5.68;;
19754;SDS011;10036;47.812;9.274;2023-04-08T05:40:53;6.93;;;6.22;;
19754;SDS011;10036;47.812;9.274;2023-04-08T05:43:20;7.22;;;5.63;;
19754;SDS011;10036;47.812;9.274;2023-04-08T05:45:49;9.25;;;6.47;;
19754;SDS011;10036;47.812;9.274;2023-04-08T05:48:15;8.52;;;6.80;;
19754;SDS011;10036;47.812;9.274;2023-04-08T05:50:42;9.77;;;8.18;;
19754;SDS011;10036;47.812;9.274;2023-04-08T05:53:09;9.38;;;8.00;;
19754;SDS011;10036;47.812;9.274;2023-04-08T05:55:36;9.57;;;7.78;;
19754;SDS011;10036;47.812;9.274;2023-04-08T05:58:04;13.27;;;7.50;;
19754;SDS011;10036;47.812;9.274;2023-04-08T06:00:31;11.40;;;8.35;;
19754;SDS011;10036;47.812;9.274;2023-04-08T06:02:58;9.75;;;8.57;;
19754;SDS011;10036;47.812;9.274;2023-04-08T06:05:25;9.63;;;8.23;;
19754;SDS011;10036;47.812;9.274;2023-04-08T06:07:52;11.70;;;9.15;;
19754;SDS011;10036;47.812;9.274;2023-04-08T06:10:19;10.38;;;8.18;;
19754;SDS011;10036;47.812;9.274;2023-04-08T06:12:46;11.30;;;8.48;;
19754;SDS011;10036;47.812;9.274;2023-04-08T06:15:14;10.93;;;8.95;;
19754;SDS011;10036;47.812;9.274;2023-04-08T06:17:41;12.80;;;9.15;;
19754;SDS011;10036;47.812;9.274;2023-04-08T06:20:08;11.30;;;8.98;;
19754;SDS011;10036;47.812;9.274;2023-04-08T06:22:35;12.57;;;9.00;;
19754;SDS011;10036;47.812;9.274;2023-04-08T06:25:03;11.02;;;8.65;;
19754;SDS011;10036;47.812;9.274;2023-04-08T06:27:30;10.27;;;8.95;;
19754;SDS011;10036;47.812;9.274;2023-04-08T06:29:57;11.95;;;9.00;;
19754;SDS011;10036;47.812;9.274;2023-04-08T06:32:25;12.25;;;8.90;;
19754;SDS011;10036;47.812;9.274;2023-04-08T06:34:52;10.27;;;8.55;;
19754;SDS011;10036;47.812;9.274;2023-04-08T06:37:19;11.05;;;8.80;;
19754;SDS011;10036;47.812;9.274;2023-04-08T06:39:46;11.23;;;8.98;;
19754;SDS011;10036;47.812;9.274;2023-04-08T06:42:13;10.70;;;8.68;;
19754;SDS011;10036;47.812;9.274;2023-04-08T06:44:39;10.60;;;8.13;;
19754;SDS011;10036;47.812;9.274;2023-04-08T06:47:06;11.00;;;8.40;;
19754;SDS011;10036;47.812;9.274;2023-04-08T06:49:35;10.50;;;8.18;;
19754;SDS011;10036;47.812;9.274;2023-04-08T06:52:02;9.88;;;8.25;;
19754;SDS011;10036;47.812;9.274;2023-04-08T06:54:30;9.98;;;7.85;;
19754;SDS011;10036;47.812;9.274;2023-04-08T06:56:57;10.88;;;8.38;;
19754;SDS011;10036;47.812;9.274;2023-04-08T06:59:24;10.63;;;8.48;;
19754;SDS011;10036;47.812;9.274;2023-04-08T07:01:51;12.20;;;8.82;;
19754;SDS011;10036;47.812;9.274;2023-04-08T07:04:18;11.68;;;9.45;;
19754;SDS011;10036;47.812;9.274;2023-04-08T07:06:46;9.43;;;8.25;;
19754;SDS011;10036;47.812;9.274;2023-04-08T07:09:13;11.57;;;8.60;;
19754;SDS011;10036;47.812;9.274;2023-04-08T07:11:40;11.38;;;9.65;;
19754;SDS011;10036;47.812;9.274;2023-04-08T07:17:28;16.02;;;12.02;;
19754;SDS011;10036;47.812;9.274;2023-04-08T07:19:56;17.75;;;10.70;;
19754;SDS011;10036;47.812;9.274;2023-04-08T07:22:24;12.25;;;9.90;;
19754;SDS011;10036;47.812;9.274;2023-04-08T07:24:51;14.25;;;11.10;;
19754;SDS011;10036;47.812;9.274;2023-04-08T07:27:18;16.25;;;12.68;;
19754;SDS011;10036;47.812;9.274;2023-04-08T07:29:45;12.75;;;11.45;;
19754;SDS011;10036;47.812;9.274;2023-04-08T07:32:12;12.05;;;10.27;;
19754;SDS011;10036;47.812;9.274;2023-04-08T07:34:39;11.65;;;10.02;;
19754;SDS011;10036;47.812;9.274;2023-04-08T07:37:06;13.35;;;10.27;;
19754;SDS011;10036;47.812;9.274;2023-04-08T07:39:34;11.48;;;9.45;;
19754;SDS011;10036;47.812;9.274;2023-04-08T07:42:01;14.07;;;11.15;;
19754;SDS011;10036;47.812;9.274;2023-04-08T07:44:28;11.70;;;10.13;;
19754;SDS011;10036;47.812;9.274;2023-04-08T07:46:55;14.27;;;10.00;;
19754;SDS011;10036;47.812;9.274;2023-04-08T07:49:23;11.82;;;9.85;;
19754;SDS011;10036;47.812;9.274;2023-04-08T07:51:50;12.00;;;9.63;;
19754;SDS011;10036;47.812;9.274;2023-04-08T07:54:17;11.60;;;9.82;;
19754;SDS011;10036;47.812;9.274;2023-04-08T07:56:46;14.00;;;10.32;;
19754;SDS011;10036;47.812;9.274;2023-04-08T07:59:13;11.15;;;9.88;;
19754;SDS011;10036;47.812;9.274;2023-04-08T08:01:40;12.73;;;9.60;;
19754;SDS011;10036;47.812;9.274;2023-04-08T08:04:07;13.63;;;10.43;;
19754;SDS011;10036;47.812;9.274;2023-04-08T08:06:34;11.38;;;9.82;;
19754;SDS011;10036;47.812;9.274;2023-04-08T08:09:00;13.30;;;9.95;;
19754;SDS011;10036;47.812;9.274;2023-04-08T08:11:29;11.38;;;9.82;;
19754;SDS011;10036;47.812;9.274;2023-04-08T08:13:58;11.90;;;9.52;;
19754;SDS011;10036;47.812;9.274;2023-04-08T08:16:26;12.65;;;10.13;;
19754;SDS011;10036;47.812;9.274;2023-04-08T08:18:54;12.02;;;9.48;;
19754;SDS011;10036;47.812;9.274;2023-04-08T08:21:21;11.93;;;10.27;;
19754;SDS011;10036;47.812;9.274;2023-04-08T08:23:48;13.27;;;9.98;;
19754;SDS011;10036;47.812;9.274;2023-04-08T08:26:17;11.18;;;9.25;;
19754;SDS011;10036;47.812;9.274;2023-04-08T08:28:44;12.65;;;9.98;;
19754;SDS011;10036;47.812;9.274;2023-04-08T08:31:12;13.10;;;10.75;;
19754;SDS011;10036;47.812;9.274;2023-04-08T08:33:44;13.25;;;10.45;;
19754;SDS011;10036;47.812;9.274;2023-04-08T08:36:12;11.57;;;9.82;;
19754;SDS011;10036;47.812;9.274;2023-04-08T08:38:39;13.43;;;10.20;;
19754;SDS011;10036;47.812;9.274;2023-04-08T08:41:06;13.38;;;10.00;;
19754;SDS011;10036;47.812;9.274;2023-04-08T08:43:33;11.07;;;9.73;;
19754;SDS011;10036;47.812;9.274;2023-04-08T08:46:00;11.75;;;9.05;;
19754;SDS011;10036;47.812;9.274;2023-04-08T08:48:36;10.15;;;8.93;;
19754;SDS011;10036;47.812;9.274;2023-04-08T08:51:06;8.57;;;7.68;;
19754;SDS011;10036;47.812;9.274;2023-04-08T08:53:37;9.45;;;8.13;;
19754;SDS011;10036;47.812;9.274;2023-04-08T08:56:09;9.85;;;8.52;;
19754;SDS011;10036;47.812;9.274;2023-04-08T08:58:41;8.55;;;7.60;;
19754;SDS011;10036;47.812;9.274;2023-04-08T09:01:28;8.93;;;8.02;;
19754;SDS011;10036;47.812;9.274;2023-04-08T09:04:07;9.60;;;8.10;;
19754;SDS011;10036;47.812;9.274;2023-04-08T09:06:42;10.38;;;8.45;;
19754;SDS011;10036;47.812;9.274;2023-04-08T09:09:14;7.80;;;7.00;;
19754;SDS011;10036;47.812;9.274;2023-04-08T09:11:48;9.32;;;7.30;;
19754;SDS011;10036;47.812;9.274;2023-04-08T09:14:34;10.82;;;7.65;;
19754;SDS011;10036;47.812;9.274;2023-04-08T09:17:09;8.13;;;6.95;;
19754;SDS011;10036;47.812;9.274;2023-04-08T09:22:34;8.45;;;7.20;;
19754;SDS011;10036;47.812;9.274;2023-04-08T09:28:39;6.15;;;5.55;;
19754;SDS011;10036;47.812;9.274;2023-04-08T09:31:20;10.43;;;8.20;;
19754;SDS011;10036;47.812;9.274;2023-04-08T09:33:52;13.70;;;10.73;;
19754;SDS011;10036;47.812;9.274;2023-04-08T09:36:25;13.77;;;10.88;;
19754;SDS011;10036;47.812;9.274;2023-04-08T09:38:55;13.20;;;10.85;;
19754;SDS011;10036;47.812;9.274;2023-04-08T09:41:28;15.35;;;11.25;;
19754;SDS011;10036;47.812;9.274;2023-04-08T09:44:00;12.27;;;9.80;;
19754;SDS011;10036;47.812;9.274;2023-04-08T09:46:31;12.77;;;10.48;;
19754;SDS011;10036;47.812;9.274;2023-04-08T09:49:04;11.98;;;10.45;;
19754;SDS011;10036;47.812;9.274;2023-04-08T09:51:40;11.98;;;10.65;;
19754;SDS011;10036;47.812;9.274;2023-04-08T09:54:23;10.82;;;9.68;;
19754;SDS011;10036;47.812;9.274;2023-04-08T09:57:04;11.55;;;10.13;;
19754;SDS011;10036;47.812;9.274;2023-04-08T09:59:37;11.85;;;9.95;;
19754;SDS011;10036;47.812;9.274;2023-04-08T10:02:11;12.27;;;10.02;;
19754;SDS011;10036;47.812;9.274;2023-04-08T10:08:07;10.48;;;9.38;;
19754;SDS011;10036;47.812;9.274;2023-04-08T10:10:37;9.90;;;8.90;;
19754;SDS011;10036;47.812;9.274;2023-04-08T10:13:06;11.60;;;9.45;;
19754;SDS011;10036;47.812;9.274;2023-04-08T10:15:33;10.32;;;9.25;;
19754;SDS011;10036;47.812;9.274;2023-04-08T10:20:58;10.32;;;8.38;;
19754;SDS011;10036;47.812;9.274;2023-04-08T10:26:30;9.45;;;8.55;;
19754;SDS011;10036;47.812;9.274;2023-04-08T10:31:57;9.15;;;7.85;;
19754;SDS011;10036;47.812;9.274;2023-04-08T10:34:25;9.32;;;8.23;;
19754;SDS011;10036;47.812;9.274;2023-04-08T10:36:53;11.10;;;8.13;;
19754;SDS011;10036;47.812;9.274;2023-04-08T10:39:24;9.32;;;7.80;;
19754;SDS011;10036;47.812;9.274;2023-04-08T10:41:52;10.88;;;8.45;;
19754;SDS011;10036;47.812;9.274;2023-04-08T10:44:20;10.95;;;7.78;;
19754;SDS011;10036;47.812;9.274;2023-04-08T10:46:49;9.05;;;7.50;;
19754;SDS011;10036;47.812;9.274;2023-04-08T10:49:17;9.18;;;7.20;;
19754;SDS011;10036;47.812;9.274;2023-04-08T10:51:49;8.25;;;7.43;;
19754;SDS011;10036;47.812;9.274;2023-04-08T10:54:25;9.20;;;7.40;;
19754;SDS011;10036;47.812;9.274;2023-04-08T10:56:58;8.15;;;6.70;;
19754;SDS011;10036;47.812;9.274;2023-04-08T10:59:29;9.18;;;6.93;;
19754;SDS011;10036;47.812;9.274;2023-04-08T11:02:03;7.40;;;6.65;;
19754;SDS011;10036;47.812;9.274;2023-04-08T11:04:40;6.18;;;5.57;;
19754;SDS011;10036;47.812;9.274;2023-04-08T11:07:11;7.40;;;5.68;;
19754;SDS011;10036;47.812;9.274;2023-04-08T11:09:41;5.85;;;5.25;;
19754;SDS011;10036;47.812;9.274;2023-04-08T11:12:14;5.60;;;5.10;;
19754;SDS011;10036;47.812;9.274;2023-04-08T11:14:44;5.10;;;4.65;;
19754;SDS011;10036;47.812;9.274;2023-04-08T11:17:11;6.45;;;5.00;;
19754;SDS011;10036;47.812;9.274;2023-04-08T11:19:44;5.22;;;4.70;;
19754;SDS011;10036;47.812;9.274;2023-04-08T11:22:15;5.72;;;5.10;;
19754;SDS011;10036;47.812;9.274;2023-04-08T11:24:45;6.18;;;5.00;;
19754;SDS011;10036;47.812;9.274;2023-04-08T11:27:17;5.22;;;4.72;;
19754;SDS011;10036;47.812;9.274;2023-04-08T11:29:53;4.75;;;4.22;;
19754;SDS011;10036;47.812;9.274;2023-04-08T11:32:21;4.47;;;4.07;;
19754;SDS011;10036;47.812;9.274;2023-04-08T11:34:50;5.70;;;4.55;;
19754;SDS011;10036;47.812;9.274;2023-04-08T11:37:19;4.60;;;4.20;;
19754;SDS011;10036;47.812;9.274;2023-04-08T11:39:51;4.93;;;4.43;;
19754;SDS011;10036;47.812;9.274;2023-04-08T11:42:26;8.18;;;4.07;;
19754;SDS011;10036;47.812;9.274;2023-04-08T11:44:54;5.57;;;3.85;;
19754;SDS011;10036;47.812;9.274;2023-04-08T11:47:29;3.78;;;3.30;;
19754;SDS011;10036;47.812;9.274;2023-04-08T11:50:01;4.18;;;3.30;;
19754;SDS011;10036;47.812;9.274;2023-04-08T11:52:39;4.03;;;3.40;;
19754;SDS011;10036;47.812;9.274;2023-04-08T11:55:20;4.10;;;3.50;;
19754;SDS011;10036;47.812;9.274;2023-04-08T11:57:52;4.15;;;3.75;;
19754;SDS011;10036;47.812;9.274;2023-04-08T12:00:28;3.75;;;3.45;;
19754;SDS011;10036;47.812;9.274;2023-04-08T12:02:57;4.15;;;3.75;;
19754;SDS011;10036;47.812;9.274;2023-04-08T12:08:49;4.75;;;4.35;;
19754;SDS011;10036;47.812;9.274;2023-04-08T12:11:18;4.95;;;4.50;;
19754;SDS011;10036;47.812;9.274;2023-04-08T12:13:45;3.92;;;3.60;;
19754;SDS011;10036;47.812;9.274;2023-04-08T12:16:13;5.05;;;4.00;;
19754;SDS011;10036;47.812;9.274;2023-04-08T12:18:41;5.32;;;4.45;;
19754;SDS011;10036;47.812;9.274;2023-04-08T12:21:08;4.35;;;3.92;;
19754;SDS011;10036;47.812;9.274;2023-04-08T12:23:35;4.15;;;3.83;;
19754;SDS011;10036;47.812;9.274;2023-04-08T12:26:02;4.55;;;4.13;;
19754;SDS011;10036;47.812;9.274;2023-04-08T12:28:32;4.95;;;4.47;;
19754;SDS011;10036;47.812;9.274;2023-04-08T12:31:00;8.73;;;7.68;;
19754;SDS011;10036;47.812;9.274;2023-04-08T12:33:27;5.47;;;4.97;;
19754;SDS011;10036;47.812;9.274;2023-04-08T12:39:16;6.55;;;5.40;;
19754;SDS011;10036;47.812;9.274;2023-04-08T12:41:44;7.25;;;5.75;;
19754;SDS011;10036;47.812;9.274;2023-04-08T12:44:13;6.22;;;5.63;;
19754;SDS011;10036;47.812;9.274;2023-04-08T12:46:40;8.30;;;6.10;;
19754;SDS011;10036;47.812;9.274;2023-04-08T12:49:07;6.95;;;6.25;;
19754;SDS011;10036;47.812;9.274;2023-04-08T12:51:34;7.35;;;6.22;;
19754;SDS011;10036;47.812;9.274;2023-04-08T12:54:01;9.13;;;7.55;;
19754;SDS011;10036;47.812;9.274;2023-04-08T12:56:28;9.27;;;7.50;;
19754;SDS011;10036;47.812;9.274;2023-04-08T12:58:56;9.30;;;7.97;;
19754;SDS011;10036;47.812;9.274;2023-04-08T13:01:24;9.50;;;8.13;;
19754;SDS011;10036;47.812;9.274;2023-04-08T13:03:51;10.48;;;8.38;;
19754;SDS011;10036;47.812;9.274;2023-04-08T13:06:18;11.55;;;9.63;;
19754;SDS011;10036;47.812;9.274;2023-04-08T13:08:45;11.73;;;9.52;;
19754;SDS011;10036;47.812;9.274;2023-04-08T13:11:12;14.02;;;9.85;;
19754;SDS011;10036;47.812;9.274;2023-04-08T13:13:39;11.25;;;9.90;;
19754;SDS011;10036;47.812;9.274;2023-04-08T13:16:06;12.25;;;10.65;;
19754;SDS011;10036;47.812;9.274;2023-04-08T13:18:34;12.02;;;10.25;;
19754;SDS011;10036;47.812;9.274;2023-04-08T13:21:01;12.18;;;9.65;;
19754;SDS011;10036;47.812;9.274;2023-04-08T13:23:28;13.52;;;10.45;;
19754;SDS011;10036;47.812;9.274;2023-04-08T13:25:55;11.73;;;10.00;;
19754;SDS011;10036;47.812;9.274;2023-04-08T13:28:22;13.43;;;10.90;;
19754;SDS011;10036;47.812;9.274;2023-04-08T13:30:49;12.50;;;10.60;;
19754;SDS011;10036;47.812;9.274;2023-04-08T13:33:17;12.43;;;10.15;;
19754;SDS011;10036;47.812;9.274;2023-04-08T13:35:46;15.75;;;10.90;;
19754;SDS011;10036;47.812;9.274;2023-04-08T13:38:12;14.35;;;10.95;;
19754;SDS011;10036;47.812;9.274;2023-04-08T13:40:39;13.00;;;10.52;;
19754;SDS011;10036;47.812;9.274;2023-04-08T13:43:07;11.90;;;10.27;;
19754;SDS011;10036;47.812;9.274;2023-04-08T13:48:56;10.25;;;8.75;;
19754;SDS011;10036;47.812;9.274;2023-04-08T13:51:24;10.82;;;9.60;;
19754;SDS011;10036;47.812;9.274;2023-04-08T13:53:51;11.18;;;8.93;;
19754;SDS011;10036;47.812;9.274;2023-04-08T13:56:18;10.85;;;9.63;;
19754;SDS011;10036;47.812;9.274;2023-04-08T13:58:45;10.75;;;9.32;;
19754;SDS011;10036;47.812;9.274;2023-04-08T14:01:12;10.80;;;9.55;;
19754;SDS011;10036;47.812;9.274;2023-04-08T14:03:38;9.52;;;8.52;;
19754;SDS011;10036;47.812;9.274;2023-04-08T14:06:05;11.30;;;9.20;;
19754;SDS011;10036;47.812;9.274;2023-04-08T14:08:34;11.65;;;9.60;;
19754;SDS011;10036;47.812;9.274;2023-04-08T14:11:01;10.30;;;9.10;;
19754;SDS011;10036;47.812;9.274;2023-04-08T14:13:28;10.05;;;8.60;;
19754;SDS011;10036;47.812;9.274;2023-04-08T14:15:56;9.85;;;8.85;;
19754;SDS011;10036;47.812;9.274;2023-04-08T14:18:25;10.93;;;7.88;;
19754;SDS011;10036;47.812;9.274;2023-04-08T14:20:53;10.75;;;8.70;;
19754;SDS011;10036;47.812;9.274;2023-04-08T14:23:20;9.15;;;8.20;;
19754;SDS011;10036;47.812;9.274;2023-04-08T14:25:48;9.27;;;7.53;;
19754;SDS011;10036;47.812;9.274;2023-04-08T14:28:15;9.77;;;8.45;;
19754;SDS011;10036;47.812;9.274;2023-04-08T14:30:42;9.13;;;8.02;;
19754;SDS011;10036;47.812;9.274;2023-04-08T14:33:09;9.63;;;8.02;;
19754;SDS011;10036;47.812;9.274;2023-04-08T14:35:36;9.77;;;7.78;;
19754;SDS011;10036;47.812;9.274;2023-04-08T14:38:03;9.05;;;7.75;;
19754;SDS011;10036;47.812;9.274;2023-04-08T14:40:30;9.07;;;8.18;;
19754;SDS011;10036;47.812;9.274;2023-04-08T14:42:58;8.85;;;7.57;;
19754;SDS011;10036;47.812;9.274;2023-04-08T14:45:25;9.15;;;7.68;;
19754;SDS011;10036;47.812;9.274;2023-04-08T14:47:52;9.32;;;8.43;;
19754;SDS011;10036;47.812;9.274;2023-04-08T14:50:19;10.25;;;8.75;;
19754;SDS011;10036;47.812;9.274;2023-04-08T14:52:46;10.00;;;8.55;;
19754;SDS011;10036;47.812;9.274;2023-04-08T14:58:36;10.68;;;8.80;;
19754;SDS011;10036;47.812;9.274;2023-04-08T15:01:03;9.23;;;8.30;;
19754;SDS011;10036;47.812;9.274;2023-04-08T15:03:30;10.52;;;9.00;;
19754;SDS011;10036;47.812;9.274;2023-04-08T15:05:57;10.25;;;8.60;;
19754;SDS011;10036;47.812;9.274;2023-04-08T15:08:25;11.57;;;8.52;;
19754;SDS011;10036;47.812;9.274;2023-04-08T15:10:52;10.38;;;9.18;;
19754;SDS011;10036;47.812;9.274;2023-04-08T15:13:19;9.80;;;8.80;;
19754;SDS011;10036;47.812;9.274;2023-04-08T15:15:48;10.30;;;8.52;;
19754;SDS011;10036;47.812;9.274;2023-04-08T15:18:15;9.90;;;8.90;;
19754;SDS011;10036;47.812;9.274;2023-04-08T15:20:42;11.57;;;8.48;;
19754;SDS011;10036;47.812;9.274;2023-04-08T15:23:09;9.95;;;8.75;;
19754;SDS011;10036;47.812;9.274;2023-04-08T15:25:37;9.73;;;8.65;;
19754;SDS011;10036;47.812;9.274;2023-04-08T15:28:03;12.23;;;10.02;;